Time;durP1;ratioP1;P1;durP2;ratioP2;P2;SDS_P1;SDS_P2;PMS_P1;PMS_P2;Temp;Humidity;BMP_temperature;BMP_pressure;BME280_temperature;BME280_humidity;BME280_pressure;Samples;Min_cycle;Max_cycle;Signal;HPM_P1;HPM_P2
2022/03/14 00:00:57;;;;;;;2.60;1.50;;;3.80;99.90;;;;;;5067456;28;20183;-68
2022/03/14 00:03:25;;;;;;;3.60;1.90;;;3.80;99.90;;;;;;5056519;28;20190;-67
2022/03/14 00:05:53;;;;;;;3.20;1.63;;;3.80;99.90;;;;;;5051972;28;20195;-68
2022/03/14 00:08:24;;;;;;;3.60;1.60;;;3.70;99.90;;;;;;5068225;28;20183;-67
2022/03/14 00:10:52;;;;;;;2.67;1.73;;;3.70;99.90;;;;;;5069573;28;20194;-67
2022/03/14 00:13:18;;;;;;;1.83;1.60;;;3.60;99.90;;;;;;5068735;28;20267;-67
2022/03/14 00:15:47;;;;;;;4.13;1.40;;;3.50;99.90;;;;;;5051699;28;20174;-67
2022/03/14 00:18:15;;;;;;;2.77;1.80;;;3.40;99.90;;;;;;5067728;28;20193;-68
2022/03/14 00:20:41;;;;;;;1.97;1.60;;;3.30;99.90;;;;;;5051753;28;20214;-67
2022/03/14 00:23:08;;;;;;;1.97;1.60;;;3.20;99.90;;;;;;5050770;28;20681;-67
2022/03/14 00:25:35;;;;;;;2.43;1.57;;;3.10;99.90;;;;;;5032723;28;20623;-68
2022/03/14 00:28:02;;;;;;;2.13;1.80;;;3.00;99.90;;;;;;5068945;28;20736;-68
2022/03/14 00:30:28;;;;;;;2.43;1.70;;;3.00;99.90;;;;;;5062930;28;20250;-67
2022/03/14 00:32:54;;;;;;;2.07;1.70;;;2.90;99.90;;;;;;5068751;28;20508;-68
2022/03/14 00:35:21;;;;;;;2.97;1.73;;;2.80;99.90;;;;;;5062083;28;20289;-68
2022/03/14 00:37:47;;;;;;;2.03;1.60;;;2.80;99.90;;;;;;5056898;28;20210;-67
2022/03/14 00:40:14;;;;;;;4.83;2.00;;;2.70;99.90;;;;;;5068621;28;20655;-67
2022/03/14 00:42:41;;;;;;;3.23;1.93;;;2.60;99.90;;;;;;5044902;28;20183;-67
2022/03/14 00:45:08;;;;;;;2.53;1.80;;;2.60;99.90;;;;;;5067822;28;20320;-67
2022/03/14 00:47:34;;;;;;;2.83;1.50;;;2.50;99.90;;;;;;5066073;28;20283;-67
2022/03/14 00:50:01;;;;;;;1.83;1.57;;;2.40;99.90;;;;;;5051218;28;20312;-67
2022/03/14 00:52:27;;;;;;;3.97;1.53;;;2.40;99.90;;;;;;5050671;28;20293;-67
2022/03/14 00:54:54;;;;;;;2.67;1.50;;;2.50;99.90;;;;;;5068442;28;20209;-68
2022/03/14 00:57:21;;;;;;;2.60;1.70;;;2.60;99.90;;;;;;5067162;28;20646;-68
2022/03/14 00:59:47;;;;;;;2.53;1.83;;;2.60;99.90;;;;;;5068486;28;20240;-68
2022/03/14 01:02:13;;;;;;;3.83;1.73;;;2.60;99.90;;;;;;5068148;28;20187;-67
2022/03/14 01:04:40;;;;;;;2.13;1.70;;;2.60;99.90;;;;;;5050398;28;20277;-67
2022/03/14 01:07:06;;;;;;;5.87;1.70;;;2.60;99.90;;;;;;5059817;28;20195;-68
2022/03/14 01:09:33;;;;;;;2.73;1.67;;;2.50;99.90;;;;;;5066743;28;20183;-67
2022/03/14 01:12:00;;;;;;;3.77;1.60;;;2.50;99.90;;;;;;5067899;28;20194;-67
2022/03/14 01:14:27;;;;;;;2.23;1.63;;;2.50;99.90;;;;;;5068531;28;20682;-67
2022/03/14 01:16:54;;;;;;;2.20;1.53;;;2.40;99.90;;;;;;5066647;28;20215;-67
2022/03/14 01:19:21;;;;;;;2.67;1.73;;;2.40;99.90;;;;;;5068102;28;20265;-67
2022/03/14 01:21:49;;;;;;;2.50;1.37;;;2.30;99.90;;;;;;5068260;28;20209;-67
2022/03/14 01:24:15;;;;;;;3.20;1.50;;;2.40;99.90;;;;;;5068394;28;20194;-68
2022/03/14 01:26:41;;;;;;;3.53;1.97;;;2.60;99.90;;;;;;5045308;28;20195;-68
2022/03/14 01:29:08;;;;;;;5.97;1.60;;;2.70;99.90;;;;;;5068155;28;20674;-67
2022/03/14 01:31:34;;;;;;;4.20;1.70;;;2.70;99.90;;;;;;5033684;28;20195;-67
2022/03/14 01:34:01;;;;;;;1.70;1.27;;;2.90;99.90;;;;;;5067742;28;20226;-68
2022/03/14 01:36:28;;;;;;;1.60;1.30;;;3.00;99.90;;;;;;5067884;28;20218;-68
2022/03/14 01:38:55;;;;;;;1.90;1.30;;;3.10;99.90;;;;;;5067691;28;20197;-68
2022/03/14 01:41:22;;;;;;;3.30;1.50;;;3.30;99.90;;;;;;5074279;28;20321;-67
2022/03/14 01:43:49;;;;;;;2.00;1.10;;;3.30;99.90;;;;;;5055872;28;20531;-67
2022/03/14 01:46:17;;;;;;;2.03;1.20;;;3.30;99.90;;;;;;5074691;28;20199;-67
2022/03/14 01:48:44;;;;;;;2.03;1.50;;;3.30;99.90;;;;;;5074091;28;20194;-67
2022/03/14 01:51:11;;;;;;;2.77;1.40;;;3.40;99.90;;;;;;5061189;28;20190;-67
2022/03/14 01:53:40;;;;;;;2.20;1.47;;;3.40;99.90;;;;;;5073496;28;20202;-67
2022/03/14 01:56:06;;;;;;;2.30;1.23;;;3.40;99.90;;;;;;5036569;28;20202;-68
2022/03/14 01:58:33;;;;;;;1.87;1.20;;;3.50;99.90;;;;;;5073755;28;20279;-68
2022/03/14 02:01:00;;;;;;;4.03;1.20;;;3.50;99.90;;;;;;5054194;28;20278;-67
2022/03/14 02:03:26;;;;;;;2.47;1.23;;;3.60;99.90;;;;;;5081779;28;20854;-67
2022/03/14 02:05:52;;;;;;;3.23;1.23;;;3.60;99.90;;;;;;5072842;28;20191;-68
2022/03/14 02:08:19;;;;;;;1.97;1.20;;;3.60;99.90;;;;;;5053076;28;20192;-68
2022/03/14 02:10:45;;;;;;;2.17;1.00;;;3.70;99.90;;;;;;5034668;28;20189;-68
2022/03/14 02:13:14;;;;;;;2.80;1.40;;;3.60;99.90;;;;;;5056226;28;20523;-68
2022/03/14 02:15:41;;;;;;;6.13;1.40;;;3.70;99.90;;;;;;5056563;28;20198;-68
2022/03/14 02:18:08;;;;;;;3.20;1.40;;;3.70;99.90;;;;;;5055607;28;20215;-68
2022/03/14 02:20:35;;;;;;;3.70;1.60;;;3.70;99.90;;;;;;5055956;28;21058;-67
2022/03/14 02:23:01;;;;;;;1.90;1.20;;;3.70;99.90;;;;;;5055957;28;20187;-68
2022/03/14 02:25:27;;;;;;;1.87;1.10;;;3.70;99.90;;;;;;5074284;28;20194;-68
2022/03/14 02:27:54;;;;;;;2.83;1.30;;;3.70;99.90;;;;;;5055256;28;20190;-67
2022/03/14 02:30:22;;;;;;;2.47;1.20;;;3.60;99.90;;;;;;5072984;28;20186;-68
2022/03/14 02:32:49;;;;;;;2.80;1.13;;;3.70;99.90;;;;;;5074430;28;20652;-67
2022/03/14 02:35:16;;;;;;;2.73;1.40;;;3.80;99.90;;;;;;5068789;28;20647;-68
2022/03/14 02:37:44;;;;;;;2.73;1.40;;;3.80;99.90;;;;;;5063514;28;20562;-68
2022/03/14 02:40:11;;;;;;;2.83;1.20;;;3.90;99.90;;;;;;5055525;28;20689;-68
2022/03/14 02:42:38;;;;;;;2.53;1.27;;;3.90;99.90;;;;;;5067078;28;20186;-68
2022/03/14 02:45:09;;;;;;;3.20;1.37;;;3.90;99.90;;;;;;5088713;28;20187;-68
2022/03/14 02:47:35;;;;;;;2.50;1.40;;;3.90;99.90;;;;;;5055445;28;20941;-68
2022/03/14 02:50:01;;;;;;;5.00;1.57;;;3.90;99.90;;;;;;5073704;28;20261;-68
2022/03/14 02:52:27;;;;;;;2.60;1.40;;;3.80;99.90;;;;;;5066284;28;20741;-67
2022/03/14 02:54:54;;;;;;;4.13;1.67;;;3.80;99.90;;;;;;5024556;28;20218;-67
2022/03/14 02:57:20;;;;;;;2.57;1.30;;;3.80;99.90;;;;;;5046759;28;20301;-68
2022/03/14 02:59:49;;;;;;;4.57;1.60;;;3.90;99.90;;;;;;5070117;28;20191;-67
2022/03/14 03:02:18;;;;;;;2.67;1.20;;;3.90;99.90;;;;;;5047527;28;20184;-68
2022/03/14 03:04:44;;;;;;;1.57;1.20;;;3.90;99.90;;;;;;5060968;28;20191;-68
2022/03/14 03:07:10;;;;;;;3.83;1.80;;;3.90;99.90;;;;;;5069421;28;20191;-67
2022/03/14 03:09:37;;;;;;;1.47;1.17;;;3.90;99.90;;;;;;5070628;28;20244;-67
2022/03/14 03:12:04;;;;;;;1.70;1.20;;;3.90;99.90;;;;;;5051750;28;20201;-67
2022/03/14 03:14:31;;;;;;;3.90;1.40;;;3.90;99.90;;;;;;5052163;28;20213;-68
2022/03/14 03:16:57;;;;;;;2.60;1.40;;;3.80;99.90;;;;;;5057424;28;20199;-67
2022/03/14 03:19:23;;;;;;;1.83;1.20;;;3.80;99.90;;;;;;5062459;28;20186;-68
2022/03/14 03:21:49;;;;;;;2.33;1.40;;;3.80;99.90;;;;;;5070109;28;20655;-67
2022/03/14 03:24:15;;;;;;;2.27;1.50;;;3.80;99.90;;;;;;5052357;28;20190;-67
2022/03/14 03:26:42;;;;;;;3.00;1.30;;;3.70;99.90;;;;;;5051058;28;20278;-67
2022/03/14 03:29:10;;;;;;;2.47;1.37;;;3.60;99.90;;;;;;5051551;28;20516;-68
2022/03/14 03:31:37;;;;;;;2.30;1.50;;;3.60;99.90;;;;;;5035806;28;20187;-68
2022/03/14 03:34:04;;;;;;;4.10;1.53;;;3.60;99.90;;;;;;5070186;28;20289;-67
2022/03/14 03:36:31;;;;;;;3.87;1.60;;;3.50;99.90;;;;;;5051603;28;20217;-67
2022/03/14 03:38:58;;;;;;;1.87;1.40;;;3.40;99.90;;;;;;5060124;28;20280;-67
2022/03/14 03:41:25;;;;;;;1.80;1.40;;;3.20;99.90;;;;;;5035135;28;20185;-68
2022/03/14 03:43:52;;;;;;;2.33;1.40;;;3.10;99.90;;;;;;5051260;28;20203;-67
2022/03/14 03:46:18;;;;;;;2.63;1.60;;;3.10;99.90;;;;;;5035302;28;20183;-67
2022/03/14 03:48:44;;;;;;;2.77;1.53;;;3.20;99.90;;;;;;5069431;28;20252;-67
2022/03/14 03:51:11;;;;;;;2.70;1.70;;;3.30;99.90;;;;;;5069261;28;20202;-68
2022/03/14 03:53:37;;;;;;;2.20;1.70;;;3.20;99.90;;;;;;5049086;28;20716;-68
2022/03/14 03:56:04;;;;;;;1.90;1.50;;;3.10;99.90;;;;;;5069843;28;20277;-68
2022/03/14 03:58:30;;;;;;;2.47;1.70;;;3.10;99.90;;;;;;5068666;28;20194;-70
2022/03/14 04:00:56;;;;;;;6.93;2.10;;;2.90;99.90;;;;;;5069337;28;20512;-67
2022/03/14 04:03:23;;;;;;;3.43;1.63;;;2.80;99.90;;;;;;5050641;28;20237;-68
2022/03/14 04:05:50;;;;;;;1.77;1.53;;;2.90;99.90;;;;;;5069634;28;20179;-68
2022/03/14 04:08:17;;;;;;;4.77;1.70;;;3.10;99.90;;;;;;5065615;28;20183;-68
2022/03/14 04:10:44;;;;;;;3.63;1.60;;;3.20;99.90;;;;;;5052599;28;20685;-67
2022/03/14 04:13:11;;;;;;;1.77;1.10;;;3.40;99.90;;;;;;5051284;28;20186;-67
2022/03/14 04:15:50;;;;;;;1.60;1.40;;;3.50;99.90;;;;;;5055104;28;20806;-67
2022/03/14 04:18:20;;;;;;;3.07;1.30;;;3.60;99.90;;;;;;5050832;28;20194;-67
2022/03/14 04:20:48;;;;;;;2.33;1.30;;;3.70;99.90;;;;;;5046008;28;20545;-67
2022/03/14 04:23:17;;;;;;;3.43;1.63;;;3.90;99.90;;;;;;5067879;28;20202;-67
2022/03/14 04:25:47;;;;;;;2.27;1.50;;;3.90;99.90;;;;;;5069224;28;20277;-67
2022/03/14 04:28:15;;;;;;;2.00;1.40;;;3.90;99.90;;;;;;5049573;28;20232;-67
2022/03/14 04:30:42;;;;;;;4.83;1.90;;;3.90;99.90;;;;;;5053747;28;20270;-67
2022/03/14 04:33:09;;;;;;;1.77;1.50;;;3.90;99.90;;;;;;5034187;28;20195;-67
2022/03/14 04:35:38;;;;;;;2.40;1.50;;;3.90;99.90;;;;;;5058374;28;20991;-68
2022/03/14 04:38:07;;;;;;;3.83;1.90;;;3.90;99.90;;;;;;5061993;28;20218;-67
2022/03/14 04:40:34;;;;;;;3.33;1.73;;;3.90;99.90;;;;;;5050919;28;20190;-67
2022/03/14 04:43:09;;;;;;;2.00;1.70;;;3.90;99.90;;;;;;5050739;28;20191;-67
2022/03/14 04:45:37;;;;;;;1.60;1.50;;;3.80;99.90;;;;;;5067444;28;20198;-67
2022/03/14 04:48:05;;;;;;;1.93;1.70;;;3.80;99.90;;;;;;5068358;28;20206;-68
2022/03/14 04:50:32;;;;;;;4.30;1.80;;;3.70;99.90;;;;;;5050289;28;20674;-67
2022/03/14 04:52:59;;;;;;;3.07;2.30;;;3.70;99.90;;;;;;5050789;28;20194;-68
2022/03/14 04:55:25;;;;;;;6.00;2.30;;;3.70;99.90;;;;;;5068997;28;20607;-68
2022/03/14 04:57:51;;;;;;;3.00;2.20;;;3.70;99.90;;;;;;5067907;28;20222;-67
2022/03/14 05:00:18;;;;;;;2.53;1.90;;;3.70;99.90;;;;;;5051221;28;20334;-67
2022/03/14 05:02:44;;;;;;;3.70;1.93;;;3.80;99.90;;;;;;5069786;28;20278;-67
2022/03/14 05:05:11;;;;;;;2.60;1.73;;;3.80;99.90;;;;;;5063853;28;20191;-68
2022/03/14 05:07:39;;;;;;;3.43;2.00;;;3.90;99.90;;;;;;5067680;28;20638;-68
2022/03/14 05:10:10;;;;;;;3.63;2.10;;;3.80;99.90;;;;;;5047289;28;20195;-68
2022/03/14 05:12:37;;;;;;;3.23;1.70;;;3.90;99.90;;;;;;5048207;28;20226;-67
2022/03/14 05:15:04;;;;;;;2.67;1.90;;;4.00;99.90;;;;;;5049411;28;20205;-67
2022/03/14 05:17:30;;;;;;;2.90;1.77;;;4.10;99.90;;;;;;5048576;28;20214;-68
2022/03/14 05:19:57;;;;;;;5.67;2.20;;;4.10;99.90;;;;;;5068372;28;20274;-67
2022/03/14 05:22:24;;;;;;;3.73;1.63;;;4.20;99.90;;;;;;5067130;28;20328;-67
2022/03/14 05:24:51;;;;;;;3.23;1.60;;;4.20;99.90;;;;;;5067590;28;20191;-68
2022/03/14 05:27:17;;;;;;;2.57;1.90;;;4.30;99.90;;;;;;5044134;28;20229;-67
2022/03/14 05:29:43;;;;;;;2.30;1.43;;;4.30;99.90;;;;;;5049833;28;20204;-68
2022/03/14 05:32:10;;;;;;;2.63;1.73;;;4.40;99.90;;;;;;5067084;28;20313;-68
2022/03/14 05:34:36;;;;;;;2.93;1.90;;;4.40;99.90;;;;;;5049931;28;20194;-68
2022/03/14 05:37:02;;;;;;;2.50;1.33;;;4.50;99.90;;;;;;5049642;28;20276;-67
2022/03/14 05:39:29;;;;;;;5.67;1.83;;;4.60;99.90;;;;;;5067653;28;21097;-67
2022/03/14 05:41:55;;;;;;;2.07;1.50;;;4.60;99.90;;;;;;5032861;28;20241;-68
2022/03/14 05:44:21;;;;;;;1.83;1.57;;;4.70;99.90;;;;;;5050163;28;20266;-68
2022/03/14 05:46:48;;;;;;;2.90;1.40;;;4.90;99.90;;;;;;5068201;28;20190;-67
2022/03/14 05:49:14;;;;;;;6.60;1.90;;;4.90;99.90;;;;;;5072236;28;20187;-68
2022/03/14 05:51:40;;;;;;;2.97;1.67;;;5.00;99.90;;;;;;5048647;28;20206;-68
2022/03/14 05:54:08;;;;;;;3.33;1.50;;;5.00;99.90;;;;;;5049840;28;20218;-67
2022/03/14 05:56:34;;;;;;;2.93;1.50;;;5.10;99.90;;;;;;5061912;28;20246;-67
2022/03/14 05:59:01;;;;;;;3.37;1.30;;;5.10;99.90;;;;;;5034203;28;20311;-68
2022/03/14 06:01:27;;;;;;;2.60;1.50;;;5.10;99.90;;;;;;5064704;28;20190;-67
2022/03/14 06:03:53;;;;;;;1.90;1.30;;;5.20;99.90;;;;;;5067563;28;20214;-67
2022/03/14 06:06:20;;;;;;;3.40;1.50;;;5.20;99.90;;;;;;5067405;28;20191;-68
2022/03/14 06:08:46;;;;;;;5.27;1.67;;;5.20;99.90;;;;;;5049120;28;20187;-67
2022/03/14 06:11:12;;;;;;;3.30;1.50;;;5.20;99.90;;;;;;5067248;28;20205;-68
2022/03/14 06:13:39;;;;;;;3.90;1.50;;;5.30;99.90;;;;;;5067299;28;20877;-68
2022/03/14 06:16:06;;;;;;;1.50;1.20;;;5.40;99.90;;;;;;5067297;28;20191;-68
2022/03/14 06:18:35;;;;;;;5.53;1.50;;;5.40;99.90;;;;;;5066776;28;20190;-68
2022/03/14 06:21:01;;;;;;;2.87;1.43;;;5.40;99.90;;;;;;5066825;28;20659;-67
2022/03/14 06:23:27;;;;;;;1.80;1.20;;;5.40;99.90;;;;;;5032128;28;20274;-68
2022/03/14 06:25:54;;;;;;;2.90;1.27;;;5.50;99.90;;;;;;5013921;28;20199;-68
2022/03/14 06:28:22;;;;;;;2.43;1.57;;;5.60;99.90;;;;;;5068452;28;20194;-68
2022/03/14 06:30:48;;;;;;;1.77;1.60;;;5.70;99.90;;;;;;5050355;28;20199;-68
2022/03/14 06:33:15;;;;;;;4.13;1.40;;;5.70;99.90;;;;;;5070577;28;20256;-67
2022/03/14 06:35:42;;;;;;;3.63;1.70;;;5.80;99.90;;;;;;5066189;28;20198;-68
2022/03/14 06:38:10;;;;;;;5.73;1.57;;;5.80;99.90;;;;;;5051762;28;20264;-67
2022/03/14 06:40:37;;;;;;;6.27;1.53;;;5.80;99.90;;;;;;5052506;28;20187;-67
2022/03/14 06:43:05;;;;;;;2.30;1.50;;;5.90;99.90;;;;;;5070236;28;20724;-68
2022/03/14 06:45:31;;;;;;;1.93;1.50;;;5.90;99.90;;;;;;5059142;28;20268;-68
2022/03/14 06:47:58;;;;;;;3.13;1.63;;;6.00;99.90;;;;;;5051880;28;20717;-67
2022/03/14 06:50:24;;;;;;;2.63;1.33;;;6.00;99.90;;;;;;5070979;28;20646;-68
2022/03/14 06:52:51;;;;;;;2.63;1.50;;;5.90;99.90;;;;;;5070569;28;20631;-68
2022/03/14 06:55:17;;;;;;;3.33;2.20;;;5.90;99.90;;;;;;5068827;28;20203;-67
2022/03/14 06:57:44;;;;;;;6.13;1.60;;;5.90;99.90;;;;;;5056874;28;20305;-68
2022/03/14 07:00:11;;;;;;;1.53;1.30;;;6.00;99.90;;;;;;5073611;28;20955;-68
2022/03/14 07:02:41;;;;;;;3.47;1.50;;;6.10;99.90;;;;;;5043079;28;20270;-68
2022/03/14 07:05:13;;;;;;;1.90;1.60;;;6.10;99.90;;;;;;5068645;28;20279;-68
2022/03/14 07:07:40;;;;;;;3.80;1.53;;;6.30;99.90;;;;;;5051912;28;20198;-67
2022/03/14 07:10:08;;;;;;;2.53;1.50;;;6.30;99.90;;;;;;5070361;28;20195;-68
2022/03/14 07:12:43;;;;;;;2.30;1.40;;;6.40;99.90;;;;;;5051283;28;20199;-68
2022/03/14 07:15:10;;;;;;;2.87;1.20;;;6.40;99.90;;;;;;5075939;28;20281;-67
2022/03/14 07:17:36;;;;;;;1.90;1.50;;;6.40;99.90;;;;;;5067808;28;20256;-68
2022/03/14 07:20:03;;;;;;;2.23;1.43;;;6.40;99.90;;;;;;5070952;28;20543;-68
2022/03/14 07:22:30;;;;;;;2.60;1.50;;;6.30;99.90;;;;;;5070250;28;20912;-68
2022/03/14 07:24:57;;;;;;;3.33;1.40;;;6.30;99.90;;;;;;5052617;28;20205;-68
2022/03/14 07:27:23;;;;;;;3.13;1.43;;;6.40;99.90;;;;;;5066938;28;20202;-68
2022/03/14 07:29:50;;;;;;;2.67;1.53;;;6.40;99.90;;;;;;5070212;28;20195;-68
2022/03/14 07:32:16;;;;;;;4.50;1.47;;;6.50;99.90;;;;;;5070443;28;20187;-68
2022/03/14 07:34:42;;;;;;;5.77;1.60;;;6.60;99.90;;;;;;5069896;28;20211;-68
2022/03/14 07:37:08;;;;;;;2.80;1.67;;;6.70;99.90;;;;;;5067382;28;20875;-68
2022/03/14 07:39:35;;;;;;;3.20;1.40;;;6.80;99.90;;;;;;5051646;28;20716;-68
2022/03/14 07:42:03;;;;;;;3.00;1.70;;;6.90;99.90;;;;;;5050169;28;20248;-68
2022/03/14 07:44:29;;;;;;;3.00;1.70;;;6.80;99.90;;;;;;5069495;28;20202;-68
2022/03/14 07:46:55;;;;;;;1.73;1.37;;;6.70;99.90;;;;;;5051234;28;20202;-68
2022/03/14 07:49:21;;;;;;;2.63;1.73;;;6.60;99.90;;;;;;5070576;28;20199;-67
2022/03/14 07:51:48;;;;;;;4.83;1.67;;;6.60;99.90;;;;;;5049757;28;20348;-68
2022/03/14 07:54:14;;;;;;;3.70;1.50;;;6.50;99.90;;;;;;5067019;28;20187;-67
2022/03/14 07:56:42;;;;;;;3.77;1.40;;;6.60;99.90;;;;;;5048119;28;20214;-67
2022/03/14 07:59:08;;;;;;;3.17;1.90;;;6.60;99.90;;;;;;5038418;28;20543;-68
2022/03/14 08:01:35;;;;;;;3.73;2.00;;;6.70;99.90;;;;;;5034142;28;20303;-68
2022/03/14 08:04:01;;;;;;;4.07;1.77;;;6.80;99.90;;;;;;5069492;28;20191;-68
2022/03/14 08:06:27;;;;;;;2.80;1.47;;;6.90;99.90;;;;;;5048175;28;20237;-68
2022/03/14 08:08:54;;;;;;;2.50;1.50;;;7.00;99.90;;;;;;5058256;28;20230;-68
2022/03/14 08:11:23;;;;;;;2.27;1.43;;;7.10;99.90;;;;;;5057257;28;20194;-67
2022/03/14 08:13:49;;;;;;;2.80;1.60;;;7.10;99.90;;;;;;5051033;28;20557;-68
2022/03/14 08:16:16;;;;;;;2.73;1.57;;;7.10;99.90;;;;;;5067101;28;20195;-68
2022/03/14 08:18:44;;;;;;;1.97;1.53;;;7.10;99.90;;;;;;5045649;28;20195;-68
2022/03/14 08:21:11;;;;;;;2.40;1.53;;;7.20;99.90;;;;;;5054856;28;20615;-68
2022/03/14 08:23:37;;;;;;;2.37;1.60;;;7.40;99.90;;;;;;5031220;28;20190;-68
2022/03/14 08:26:04;;;;;;;3.73;1.50;;;7.50;99.90;;;;;;5032871;28;20256;-67
2022/03/14 08:28:31;;;;;;;2.40;1.50;;;7.60;99.90;;;;;;5064554;28;20186;-68
2022/03/14 08:30:58;;;;;;;2.97;1.73;;;7.60;99.90;;;;;;5047603;28;20725;-68
2022/03/14 08:33:26;;;;;;;3.27;1.40;;;7.60;99.90;;;;;;5065555;28;20505;-68
2022/03/14 08:35:54;;;;;;;3.20;1.80;;;7.60;99.90;;;;;;5044329;28;20218;-68
2022/03/14 08:38:20;;;;;;;2.53;1.57;;;7.80;99.90;;;;;;5056444;28;20233;-68
2022/03/14 08:40:47;;;;;;;3.53;1.90;;;7.80;99.90;;;;;;5068167;28;20190;-68
2022/03/14 08:43:13;;;;;;;4.57;1.43;;;7.70;99.90;;;;;;5036336;28;20191;-68
2022/03/14 08:45:43;;;;;;;2.67;1.67;;;7.60;99.90;;;;;;5041702;28;20277;-68
2022/03/14 08:48:11;;;;;;;4.10;1.80;;;7.50;99.90;;;;;;5066514;28;20194;-68
2022/03/14 08:50:38;;;;;;;4.03;1.60;;;7.50;99.90;;;;;;5061336;28;20190;-68
2022/03/14 08:53:05;;;;;;;2.87;1.47;;;7.60;99.90;;;;;;5067739;28;20205;-68
2022/03/14 08:55:31;;;;;;;3.27;1.40;;;7.70;99.90;;;;;;5067171;28;20282;-68
2022/03/14 08:57:58;;;;;;;5.17;1.57;;;7.70;99.90;;;;;;5054242;28;20674;-68
2022/03/14 09:00:29;;;;;;;2.40;1.67;;;7.60;99.90;;;;;;5065175;28;20222;-68
2022/03/14 09:02:56;;;;;;;2.83;1.90;;;7.50;99.90;;;;;;5054624;28;20181;-67
2022/03/14 09:05:23;;;;;;;2.40;1.60;;;7.50;99.90;;;;;;5033262;28;20191;-68
2022/03/14 09:07:51;;;;;;;3.93;1.80;;;7.50;99.90;;;;;;5069063;28;20365;-67
2022/03/14 09:10:17;;;;;;;2.57;1.83;;;7.50;99.90;;;;;;5064619;28;20195;-67
2022/03/14 09:12:44;;;;;;;3.13;1.60;;;7.50;99.90;;;;;;5053001;28;20269;-67
2022/03/14 09:15:12;;;;;;;2.23;1.60;;;7.40;99.90;;;;;;5050429;28;20202;-67
2022/03/14 09:17:54;;;;;;;1.60;1.37;;;7.40;99.90;;;;;;5046298;28;20229;-67
2022/03/14 09:20:21;;;;;;;3.13;1.77;;;7.50;99.90;;;;;;5063572;28;20277;-67
2022/03/14 09:22:48;;;;;;;4.23;1.50;;;7.70;99.90;;;;;;5064519;28;20258;-68
2022/03/14 09:25:16;;;;;;;2.13;1.60;;;7.90;99.90;;;;;;5028495;28;20278;-67
2022/03/14 09:27:44;;;;;;;3.60;1.80;;;8.20;99.90;;;;;;5061821;28;20204;-68
2022/03/14 09:30:15;;;;;;;3.67;1.50;;;8.50;99.90;;;;;;5068319;28;20672;-67
2022/03/14 09:32:42;;;;;;;2.33;1.70;;;8.60;99.90;;;;;;5070365;28;20191;-67
2022/03/14 09:35:11;;;;;;;3.90;1.60;;;8.40;99.90;;;;;;5065097;28;20249;-67
2022/03/14 09:37:40;;;;;;;2.37;1.80;;;8.30;99.90;;;;;;5069335;28;20709;-67
2022/03/14 09:40:19;;;;;;;2.20;1.70;;;8.30;99.90;;;;;;5047331;28;20214;-67
2022/03/14 09:42:49;;;;;;;3.27;1.90;;;8.20;99.90;;;;;;5043606;28;20240;-68
2022/03/14 09:45:16;;;;;;;5.83;1.60;;;8.20;99.90;;;;;;5062747;28;20186;-68
2022/03/14 09:47:47;;;;;;;1.97;1.40;;;8.20;99.90;;;;;;5023804;28;20190;-67
2022/03/14 09:50:23;;;;;;;2.23;1.60;;;8.00;99.90;;;;;;5063456;28;20713;-68
2022/03/14 09:52:50;;;;;;;3.17;1.63;;;9.40;99.90;;;;;;5058913;28;20248;-68
2022/03/14 09:55:17;;;;;;;2.50;1.40;;;12.30;99.90;;;;;;5064230;28;20678;-67
2022/03/14 09:57:43;;;;;;;2.50;1.50;;;12.00;99.90;;;;;;5046023;28;20974;-68
2022/03/14 10:00:13;;;;;;;2.97;1.77;;;11.50;99.90;;;;;;5062684;28;20666;-68
2022/03/14 10:02:41;;;;;;;4.20;1.83;;;11.60;99.90;;;;;;5046134;28;20186;-66
2022/03/14 10:05:14;;;;;;;1.80;1.40;;;11.80;99.90;;;;;;5065829;28;20908;-67
2022/03/14 10:07:45;;;;;;;2.07;1.17;;;12.60;99.90;;;;;;5063700;28;20203;-65
2022/03/14 10:10:14;;;;;;;3.07;1.47;;;14.50;99.90;;;;;;5066180;28;20205;-67
2022/03/14 10:12:42;;;;;;;2.63;1.63;;;18.90;96.50;;;;;;5058348;28;20216;-65
2022/03/14 10:15:10;;;;;;;2.93;1.50;;;21.30;92.20;;;;;;5048203;28;20187;-67
2022/03/14 10:17:37;;;;;;;2.40;1.53;;;22.00;89.10;;;;;;5049515;28;20226;-67
2022/03/14 10:20:08;;;;;;;2.27;1.43;;;18.50;87.90;;;;;;5068917;28;20661;-67
2022/03/14 10:22:39;;;;;;;3.03;1.70;;;16.30;90.20;;;;;;5066444;28;20225;-67
2022/03/14 10:25:19;;;;;;;2.33;1.37;;;15.10;92.00;;;;;;5065316;28;20199;-67
2022/03/14 10:27:57;;;;;;;3.17;1.63;;;14.20;92.10;;;;;;5033215;28;20189;-67
2022/03/14 10:30:34;;;;;;;1.97;1.20;;;14.10;92.00;;;;;;5066050;28;20194;-67
2022/03/14 10:33:23;;;;;;;5.97;1.53;;;15.60;93.00;;;;;;5060460;28;20986;-67
2022/03/14 10:35:54;;;;;;;4.43;1.60;;;20.30;90.70;;;;;;5067507;28;20218;-67
2022/03/14 10:38:22;;;;;;;4.27;1.40;;;21.70;88.60;;;;;;5062053;28;20235;-67
2022/03/14 10:40:48;;;;;;;3.47;1.13;;;21.60;86.60;;;;;;5050011;28;20190;-67
2022/03/14 10:43:35;;;;;;;2.30;1.37;;;19.50;87.80;;;;;;5068761;28;20187;-67
2022/03/14 10:46:04;;;;;;;3.27;1.60;;;16.80;88.50;;;;;;5058452;28;20189;-67
2022/03/14 10:48:49;;;;;;;2.33;1.40;;;15.60;90.20;;;;;;5063338;28;20229;-67
2022/03/14 10:51:17;;;;;;;2.27;1.43;;;14.80;91.80;;;;;;5069384;28;20201;-67
2022/03/14 10:53:48;;;;;;;4.37;1.57;;;14.30;91.70;;;;;;5045439;28;20218;-66
2022/03/14 10:56:18;;;;;;;4.10;1.30;;;13.70;92.30;;;;;;5050951;28;20817;-67
2022/03/14 10:58:45;;;;;;;3.07;1.40;;;13.00;92.30;;;;;;5065655;28;20256;-66
2022/03/14 11:01:13;;;;;;;2.27;1.57;;;12.70;93.10;;;;;;5064998;28;20211;-67
2022/03/14 11:03:45;;;;;;;2.70;1.30;;;12.40;93.00;;;;;;5068277;28;20191;-66
2022/03/14 11:06:14;;;;;;;2.43;1.40;;;12.30;93.80;;;;;;5050134;28;20294;-67
2022/03/14 11:08:43;;;;;;;1.70;1.30;;;12.10;93.50;;;;;;5048346;28;20265;-66
2022/03/14 11:11:21;;;;;;;1.80;1.10;;;11.90;93.80;;;;;;5066532;28;20282;-67
2022/03/14 11:13:57;;;;;;;2.93;1.40;;;11.90;93.20;;;;;;5060209;28;20186;-66
2022/03/14 11:16:34;;;;;;;3.60;1.73;;;11.70;94.10;;;;;;5067219;28;20524;-67
2022/03/14 11:19:01;;;;;;;2.23;1.50;;;11.50;94.20;;;;;;5052336;28;20186;-66
2022/03/14 11:21:31;;;;;;;3.10;1.60;;;11.30;94.60;;;;;;5069276;28;20199;-67
2022/03/14 11:24:00;;;;;;;4.53;1.50;;;11.20;95.80;;;;;;5068851;28;20190;-67
2022/03/14 11:26:26;;;;;;;2.37;1.40;;;11.20;95.60;;;;;;5074948;28;20182;-67
2022/03/14 11:28:57;;;;;;;6.80;1.80;;;11.10;96.30;;;;;;5069652;28;20203;-67
2022/03/14 11:31:23;;;;;;;2.60;1.50;;;11.10;95.60;;;;;;5068415;28;20249;-67
2022/03/14 11:33:51;;;;;;;3.77;1.43;;;11.10;95.10;;;;;;5069652;28;20229;-67
2022/03/14 11:36:22;;;;;;;4.73;1.53;;;11.10;95.30;;;;;;5065020;28;20290;-67
2022/03/14 11:38:49;;;;;;;2.77;1.50;;;11.10;97.50;;;;;;5035696;28;20226;-67
2022/03/14 11:41:18;;;;;;;2.67;1.50;;;11.00;97.60;;;;;;5067154;28;20199;-67
2022/03/14 11:43:48;;;;;;;2.50;1.37;;;11.00;96.10;;;;;;5040605;28;20754;-66
2022/03/14 11:46:14;;;;;;;2.63;1.60;;;10.90;96.40;;;;;;5066129;28;20546;-66
2022/03/14 11:48:41;;;;;;;2.70;1.20;;;10.90;97.00;;;;;;5063280;28;20193;-66
2022/03/14 11:51:07;;;;;;;2.73;1.43;;;10.90;95.80;;;;;;5042896;28;20553;-66
2022/03/14 11:53:48;;;;;;;2.40;1.50;;;10.80;96.80;;;;;;5067398;28;20294;-67
2022/03/14 11:56:15;;;;;;;2.40;1.60;;;10.80;96.20;;;;;;5053751;28;20257;-67
2022/03/14 11:59:01;;;;;;;2.43;1.40;;;10.70;96.40;;;;;;5054220;28;20187;-66
2022/03/14 12:01:30;;;;;;;3.20;1.50;;;10.80;96.60;;;;;;5064836;28;20204;-67
2022/03/14 12:04:05;;;;;;;3.13;1.50;;;10.60;96.10;;;;;;5062891;28;20220;-67
2022/03/14 12:06:49;;;;;;;2.77;1.50;;;10.60;96.20;;;;;;5066590;28;20650;-66
2022/03/14 12:09:27;;;;;;;2.03;1.40;;;10.60;96.70;;;;;;5062547;28;20214;-66
2022/03/14 12:12:01;;;;;;;2.63;1.23;;;10.60;96.20;;;;;;5049706;28;20677;-67
2022/03/14 12:14:53;;;;;;;2.50;1.50;;;10.60;96.10;;;;;;5066000;28;20195;-67
2022/03/14 12:17:19;;;;;;;1.83;1.40;;;10.60;96.70;;;;;;5063862;28;20211;-66
2022/03/14 12:20:01;;;;;;;4.60;1.50;;;10.60;95.80;;;;;;5069078;28;20218;-67
2022/03/14 12:22:30;;;;;;;3.77;1.40;;;10.60;96.20;;;;;;5068461;28;20197;-67
2022/03/14 12:25:00;;;;;;;2.70;1.40;;;10.50;96.50;;;;;;5067322;28;20593;-66
2022/03/14 12:27:35;;;;;;;2.77;1.70;;;10.40;96.80;;;;;;5062838;28;20218;-66
2022/03/14 12:30:16;;;;;;;2.53;1.50;;;10.50;97.90;;;;;;5046973;28;20337;-67
2022/03/14 12:32:48;;;;;;;2.10;1.33;;;10.50;96.60;;;;;;5064346;28;20194;-67
2022/03/14 12:35:21;;;;;;;4.50;1.40;;;10.40;96.20;;;;;;5060534;28;20199;-66
2022/03/14 12:37:52;;;;;;;1.73;1.40;;;10.30;95.50;;;;;;5061473;28;20222;-67
2022/03/14 12:40:22;;;;;;;5.23;1.40;;;10.30;96.60;;;;;;5046928;28;20214;-67
2022/03/14 12:42:52;;;;;;;3.43;1.50;;;10.30;96.50;;;;;;5043194;28;20183;-67
2022/03/14 12:45:38;;;;;;;3.10;1.43;;;10.20;96.20;;;;;;5063528;28;20179;-67
2022/03/14 12:48:26;;;;;;;3.30;1.60;;;10.20;96.30;;;;;;5063571;28;20195;-66
2022/03/14 12:51:07;;;;;;;1.47;1.20;;;10.20;96.00;;;;;;5065184;28;20191;-67
2022/03/14 12:53:45;;;;;;;3.63;1.60;;;10.30;96.30;;;;;;5043352;28;20256;-66
2022/03/14 12:56:25;;;;;;;2.33;1.47;;;10.30;96.10;;;;;;5057161;28;20190;-67
2022/03/14 12:59:09;;;;;;;3.93;1.50;;;10.30;96.50;;;;;;5061586;28;20191;-65
2022/03/14 13:01:40;;;;;;;6.90;1.73;;;10.10;95.80;;;;;;5058979;28;20199;-66